Time;durP1;ratioP1;P1;durP2;ratioP2;P2;SDS_P1;SDS_P2;PMS_P1;PMS_P2;Temp;Humidity;BMP_temperature;BMP_pressure;BME280_temperature;BME280_humidity;BME280_pressure;Samples;Min_cycle;Max_cycle;Signal;HPM_P1;HPM_P2
2023/07/22 00:02:20;;;;;;;9.77;6.95;;;13.10;99.90;;;;;;5114108;27;20479;-38
2023/07/22 00:04:46;;;;;;;16.08;6.22;;;13.10;99.90;;;;;;5115022;27;20773;-38
2023/07/22 00:07:11;;;;;;;11.00;8.13;;;13.10;99.90;;;;;;5113954;27;20046;-38
2023/07/22 00:09:38;;;;;;;10.70;7.20;;;13.00;99.90;;;;;;5112846;27;20039;-39
2023/07/22 00:12:04;;;;;;;12.40;6.55;;;13.00;99.90;;;;;;5113860;27;20035;-38
2023/07/22 00:14:31;;;;;;;10.73;6.57;;;13.00;99.90;;;;;;5110160;27;20050;-38
2023/07/22 00:16:57;;;;;;;10.73;6.88;;;13.00;99.90;;;;;;5113804;27;20154;-38
2023/07/22 00:19:23;;;;;;;9.82;6.55;;;12.90;99.90;;;;;;5113517;27;20792;-38
2023/07/22 00:21:49;;;;;;;8.52;5.85;;;12.90;99.90;;;;;;5094613;27;20367;-38
2023/07/22 00:24:15;;;;;;;11.25;5.90;;;12.90;99.90;;;;;;5112930;27;20099;-39
2023/07/22 00:26:41;;;;;;;11.77;6.38;;;12.90;99.90;;;;;;5113856;27;21241;-38
2023/07/22 00:29:07;;;;;;;8.98;6.13;;;12.90;99.90;;;;;;5113712;27;20039;-38
2023/07/22 00:31:33;;;;;;;10.40;6.13;;;12.90;99.90;;;;;;5112606;27;20165;-38
2023/07/22 00:33:59;;;;;;;11.15;5.95;;;12.90;99.90;;;;;;5113912;27;20131;-38
2023/07/22 00:36:25;;;;;;;11.07;7.00;;;12.90;99.90;;;;;;5114472;27;20448;-38
2023/07/22 00:38:52;;;;;;;11.98;8.20;;;12.90;99.90;;;;;;5116991;27;20133;-38
2023/07/22 00:41:18;;;;;;;9.98;7.45;;;12.80;99.90;;;;;;5112964;27;20078;-38
2023/07/22 00:43:44;;;;;;;12.52;7.95;;;12.80;99.90;;;;;;5112708;27;20111;-38
2023/07/22 00:46:09;;;;;;;10.77;6.47;;;12.80;99.90;;;;;;5113204;27;20580;-38
2023/07/22 00:48:36;;;;;;;9.13;6.75;;;12.80;99.90;;;;;;5112824;27;20369;-38
2023/07/22 00:51:01;;;;;;;11.55;7.30;;;12.80;99.90;;;;;;5093907;27;20035;-38
2023/07/22 00:53:28;;;;;;;10.68;6.30;;;12.80;99.90;;;;;;5116609;27;20046;-39
2023/07/22 00:55:54;;;;;;;11.23;6.95;;;12.70;99.90;;;;;;5115435;27;20745;-38
2023/07/22 00:58:21;;;;;;;11.85;7.63;;;12.70;99.90;;;;;;5117040;27;20043;-38
2023/07/22 01:00:46;;;;;;;8.65;6.75;;;12.70;99.90;;;;;;5113895;27;20493;-38
2023/07/22 01:03:12;;;;;;;10.85;7.50;;;12.60;99.90;;;;;;5098391;27;20126;-38
2023/07/22 01:05:39;;;;;;;10.27;7.38;;;12.60;99.90;;;;;;5115051;27;20051;-38
2023/07/22 01:08:06;;;;;;;11.68;7.45;;;12.60;99.90;;;;;;5116350;27;20908;-38
2023/07/22 01:10:31;;;;;;;12.68;8.55;;;12.50;99.90;;;;;;5090646;27;20043;-38
2023/07/22 01:12:57;;;;;;;11.30;7.13;;;12.50;99.90;;;;;;5110968;27;20043;-38
2023/07/22 01:15:24;;;;;;;14.90;8.07;;;12.40;99.90;;;;;;5111762;27;20995;-38
2023/07/22 01:17:50;;;;;;;12.65;8.00;;;12.40;99.90;;;;;;5094500;27;20039;-38
2023/07/22 01:20:18;;;;;;;8.65;6.65;;;12.40;99.90;;;;;;5111777;27;20158;-38
2023/07/22 01:22:53;;;;;;;10.32;6.78;;;12.40;99.90;;;;;;5113390;27;20043;-39
2023/07/22 01:25:21;;;;;;;12.52;6.40;;;12.30;99.90;;;;;;5111980;27;20039;-38
2023/07/22 01:27:48;;;;;;;9.90;6.28;;;12.30;99.90;;;;;;5094458;27;20053;-38
2023/07/22 01:30:14;;;;;;;8.32;6.63;;;12.30;99.90;;;;;;5111628;27;20146;-38
2023/07/22 01:32:40;;;;;;;10.02;6.70;;;12.30;99.90;;;;;;5112624;27;20035;-38
2023/07/22 01:35:07;;;;;;;10.02;6.30;;;12.30;99.90;;;;;;5113547;27;20035;-38
2023/07/22 01:37:33;;;;;;;12.80;7.07;;;12.30;99.90;;;;;;5114349;27;20206;-38
2023/07/22 01:39:59;;;;;;;11.55;7.07;;;12.20;99.90;;;;;;5113123;27;20050;-39
2023/07/22 01:42:25;;;;;;;10.98;6.97;;;12.10;99.90;;;;;;5112690;27;20091;-38
2023/07/22 01:44:52;;;;;;;10.07;6.55;;;12.00;99.90;;;;;;5093570;27;20547;-46
2023/07/22 01:47:18;;;;;;;10.05;6.70;;;12.00;99.90;;;;;;5112806;27;20039;-38
2023/07/22 01:49:44;;;;;;;10.20;6.75;;;12.00;99.90;;;;;;5115500;27;20035;-38
2023/07/22 01:52:09;;;;;;;8.98;6.20;;;12.00;99.90;;;;;;5113012;27;20620;-38
2023/07/22 01:54:35;;;;;;;12.32;7.05;;;11.90;99.90;;;;;;5114386;27;20034;-38
2023/07/22 01:57:00;;;;;;;9.70;6.07;;;11.90;99.90;;;;;;5112112;27;20083;-38
2023/07/22 01:59:26;;;;;;;9.23;6.57;;;11.90;99.90;;;;;;5110817;27;20039;-38
2023/07/22 02:01:52;;;;;;;8.43;5.88;;;11.90;99.90;;;;;;5114672;27;20038;-38
2023/07/22 02:04:17;;;;;;;12.48;6.45;;;11.90;99.90;;;;;;5114412;27;20445;-38
2023/07/22 02:06:44;;;;;;;10.60;6.25;;;11.90;99.90;;;;;;5112438;27;20058;-38
2023/07/22 02:09:13;;;;;;;7.88;5.70;;;11.90;99.90;;;;;;5116174;27;20069;-38
2023/07/22 02:11:39;;;;;;;10.13;6.30;;;12.00;99.90;;;;;;5112516;27;20050;-38
2023/07/22 02:14:06;;;;;;;12.73;6.72;;;12.00;99.90;;;;;;5111910;27;20460;-38
2023/07/22 02:16:39;;;;;;;8.88;6.50;;;12.00;99.90;;;;;;5110922;27;20034;-38
2023/07/22 02:19:04;;;;;;;7.97;5.50;;;12.00;99.90;;;;;;5118812;27;20050;-38
2023/07/22 02:21:30;;;;;;;10.38;6.13;;;11.90;99.90;;;;;;5125352;27;20050;-38
2023/07/22 02:23:56;;;;;;;9.98;5.78;;;11.80;99.90;;;;;;5113370;27;20046;-38
2023/07/22 02:26:21;;;;;;;8.23;6.07;;;11.80;99.90;;;;;;5137290;27;20039;-38
2023/07/22 02:28:48;;;;;;;11.70;6.28;;;11.80;99.90;;;;;;5123009;27;20043;-38
2023/07/22 02:31:13;;;;;;;8.90;6.20;;;11.80;99.90;;;;;;5135660;27;20475;-39
2023/07/22 02:33:39;;;;;;;8.63;6.22;;;11.80;99.90;;;;;;5135821;27;20039;-38
2023/07/22 02:36:05;;;;;;;9.68;7.15;;;11.80;99.90;;;;;;5136467;27;20045;-38
2023/07/22 02:38:31;;;;;;;11.77;6.15;;;11.80;99.90;;;;;;5132614;27;20298;-39
2023/07/22 02:41:06;;;;;;;10.10;6.40;;;11.80;99.90;;;;;;5125534;27;20194;-38
2023/07/22 02:43:32;;;;;;;10.13;6.40;;;11.80;99.90;;;;;;5107431;28;20058;-38
2023/07/22 02:46:01;;;;;;;11.93;6.35;;;11.80;99.90;;;;;;5115302;28;20047;-38
2023/07/22 02:48:26;;;;;;;11.52;6.65;;;11.80;99.90;;;;;;5115588;27;20050;-38
2023/07/22 02:50:52;;;;;;;9.20;6.80;;;11.70;99.90;;;;;;5113629;27;20047;-38
2023/07/22 02:53:18;;;;;;;10.13;6.13;;;11.80;99.90;;;;;;5115820;28;20043;-38
2023/07/22 02:55:46;;;;;;;9.85;6.35;;;11.80;99.90;;;;;;5096870;28;20057;-38
2023/07/22 02:58:12;;;;;;;10.68;7.13;;;11.80;99.90;;;;;;5116044;27;20115;-38
2023/07/22 03:00:38;;;;;;;10.88;6.70;;;11.90;99.90;;;;;;5114817;27;20074;-38
2023/07/22 03:03:05;;;;;;;14.10;7.38;;;11.90;99.90;;;;;;5114941;27;20232;-38
2023/07/22 03:05:32;;;;;;;11.75;7.35;;;11.80;99.90;;;;;;5115430;28;20049;-38
2023/07/22 03:07:58;;;;;;;11.00;6.55;;;11.90;99.90;;;;;;5096729;28;20494;-38
2023/07/22 03:10:25;;;;;;;12.77;8.13;;;12.00;99.90;;;;;;5094959;27;20065;-38
2023/07/22 03:12:54;;;;;;;11.82;6.80;;;12.00;99.90;;;;;;5088263;27;20111;-38
2023/07/22 03:15:22;;;;;;;11.18;7.43;;;12.10;99.90;;;;;;5115165;27;20043;-38
2023/07/22 03:17:48;;;;;;;12.93;7.60;;;12.20;99.90;;;;;;5100564;27;20082;-38
2023/07/22 03:20:14;;;;;;;13.30;7.75;;;12.20;99.90;;;;;;5118723;27;20488;-38
2023/07/22 03:22:43;;;;;;;11.98;7.43;;;12.30;99.90;;;;;;5126273;27;20039;-38
2023/07/22 03:25:10;;;;;;;11.02;7.13;;;12.30;99.90;;;;;;5113882;27;20353;-38
2023/07/22 03:27:37;;;;;;;13.13;7.72;;;12.40;99.90;;;;;;5120020;27;20084;-38
2023/07/22 03:30:15;;;;;;;12.15;7.15;;;12.40;99.90;;;;;;5118490;27;20057;-38
2023/07/22 03:32:48;;;;;;;14.82;7.95;;;12.40;99.90;;;;;;5119499;27;20393;-38
2023/07/22 03:35:13;;;;;;;11.75;7.25;;;12.50;99.90;;;;;;5119248;27;20078;-38
2023/07/22 03:37:40;;;;;;;9.18;7.03;;;12.50;99.90;;;;;;5119870;27;20070;-38
2023/07/22 03:40:14;;;;;;;11.80;7.13;;;12.50;99.90;;;;;;5117562;27;20046;-38
2023/07/22 03:42:40;;;;;;;11.38;8.50;;;12.60;99.90;;;;;;5100875;27;20254;-38
2023/07/22 03:45:08;;;;;;;21.20;9.10;;;12.70;99.90;;;;;;5116359;27;20039;-38
2023/07/22 03:47:34;;;;;;;22.95;8.65;;;12.80;99.90;;;;;;5099857;27;20582;-39
2023/07/22 03:49:59;;;;;;;19.35;8.55;;;12.80;99.90;;;;;;5116043;27;20039;-38
2023/07/22 03:52:25;;;;;;;16.95;7.82;;;12.80;99.90;;;;;;5118362;27;20353;-38
2023/07/22 03:54:50;;;;;;;16.40;8.43;;;12.90;99.90;;;;;;5099136;27;20375;-38
2023/07/22 03:57:16;;;;;;;20.90;9.50;;;12.80;99.90;;;;;;5118294;27;20055;-38
2023/07/22 03:59:42;;;;;;;14.02;8.65;;;12.80;99.90;;;;;;5116541;27;20484;-39
2023/07/22 04:02:07;;;;;;;11.00;7.68;;;12.80;99.90;;;;;;5115337;27;20164;-38
2023/07/22 04:04:33;;;;;;;14.73;8.80;;;12.80;99.90;;;;;;5114108;27;20044;-39
2023/07/22 04:06:58;;;;;;;22.50;9.70;;;12.90;99.90;;;;;;5114545;27;20395;-38
2023/07/22 04:09:26;;;;;;;17.02;9.02;;;13.00;99.90;;;;;;5113409;27;20039;-39
2023/07/22 04:11:52;;;;;;;15.55;8.63;;;13.00;99.90;;;;;;5114423;27;20047;-38
2023/07/22 04:14:18;;;;;;;13.32;9.07;;;13.00;99.90;;;;;;5110866;27;20390;-39
2023/07/22 04:16:43;;;;;;;32.95;9.88;;;12.90;99.90;;;;;;5113948;27;20042;-39
2023/07/22 04:19:09;;;;;;;14.35;8.43;;;12.90;99.90;;;;;;5115047;27;20046;-39
2023/07/22 04:21:35;;;;;;;28.88;9.60;;;12.90;99.90;;;;;;5096208;27;20096;-38
2023/07/22 04:24:00;;;;;;;16.08;9.77;;;12.90;99.90;;;;;;5113613;27;20377;-38
2023/07/22 04:26:26;;;;;;;12.15;8.00;;;12.90;99.90;;;;;;5096948;27;20477;-38
2023/07/22 04:28:52;;;;;;;13.52;9.05;;;12.90;99.90;;;;;;5115709;27;20129;-38
2023/07/22 04:31:18;;;;;;;15.52;9.73;;;13.00;99.90;;;;;;5113037;27;20590;-38
2023/07/22 04:33:44;;;;;;;20.05;9.60;;;12.90;99.90;;;;;;5117306;27;20034;-38
2023/07/22 04:36:11;;;;;;;18.50;10.25;;;13.00;99.90;;;;;;5114930;27;20106;-39
2023/07/22 04:38:36;;;;;;;16.10;9.95;;;13.00;99.90;;;;;;5116181;27;20866;-38
2023/07/22 04:41:04;;;;;;;15.75;9.68;;;13.00;99.90;;;;;;5113600;27;20048;-38
2023/07/22 04:43:30;;;;;;;21.73;11.48;;;13.00;99.90;;;;;;5111173;27;20043;-39
2023/07/22 04:45:56;;;;;;;17.95;11.45;;;13.00;99.90;;;;;;5113711;27;20435;-39
2023/07/22 04:48:23;;;;;;;19.83;11.57;;;13.00;99.90;;;;;;5113901;27;20046;-38
2023/07/22 04:50:49;;;;;;;19.52;11.27;;;13.10;99.90;;;;;;5112034;27;20058;-38
2023/07/22 04:53:16;;;;;;;16.17;11.40;;;13.10;99.90;;;;;;5112794;27;20035;-39
2023/07/22 04:55:41;;;;;;;20.02;13.27;;;13.10;99.90;;;;;;5093950;27;20557;-38
2023/07/22 04:58:09;;;;;;;20.10;12.88;;;13.20;99.90;;;;;;5093975;27;20039;-38
2023/07/22 05:00:34;;;;;;;24.50;14.73;;;13.20;99.90;;;;;;5111790;27;20049;-39
2023/07/22 05:03:00;;;;;;;20.42;13.77;;;13.30;99.90;;;;;;5112766;27;20043;-38
2023/07/22 05:05:26;;;;;;;23.85;14.32;;;13.40;99.90;;;;;;5113071;27;20502;-38
2023/07/22 05:07:52;;;;;;;24.67;14.40;;;13.50;99.90;;;;;;5113130;27;20039;-39
2023/07/22 05:10:19;;;;;;;28.48;15.95;;;13.60;99.90;;;;;;5093030;27;20066;-38
2023/07/22 05:12:45;;;;;;;27.70;15.70;;;13.80;99.90;;;;;;5116871;27;20036;-39
2023/07/22 05:15:12;;;;;;;22.13;14.90;;;14.10;99.90;;;;;;5111908;27;20145;-39
2023/07/22 05:17:38;;;;;;;23.02;13.45;;;14.50;99.90;;;;;;5113826;27;20062;-39
2023/07/22 05:20:06;;;;;;;19.10;13.32;;;14.90;99.90;;;;;;5092719;27;20533;-38
2023/07/22 05:22:32;;;;;;;22.00;14.88;;;14.90;99.90;;;;;;5111815;27;20515;-39
2023/07/22 05:24:58;;;;;;;21.25;14.45;;;14.90;99.90;;;;;;5109898;27;20116;-39
2023/07/22 05:27:25;;;;;;;21.63;15.85;;;14.90;99.90;;;;;;5112163;27;20043;-39
2023/07/22 05:29:51;;;;;;;22.77;15.75;;;14.80;99.90;;;;;;5113688;27;20031;-39
2023/07/22 05:32:16;;;;;;;26.40;15.95;;;14.80;99.90;;;;;;5094505;27;20066;-39
2023/07/22 05:34:42;;;;;;;31.13;16.88;;;14.70;99.90;;;;;;5112797;27;20046;-38
2023/07/22 05:37:08;;;;;;;24.15;16.40;;;14.60;99.90;;;;;;5093339;27;20432;-39
2023/07/22 05:39:33;;;;;;;26.45;17.10;;;14.70;99.90;;;;;;5111396;27;20046;-38
2023/07/22 05:41:59;;;;;;;25.90;16.90;;;14.60;99.90;;;;;;5112030;27;20053;-43
2023/07/22 05:44:25;;;;;;;23.15;15.60;;;14.70;99.90;;;;;;5110216;27;20050;-39
2023/07/22 05:46:50;;;;;;;23.55;16.95;;;14.70;99.90;;;;;;5113974;27;20043;-39
2023/07/22 05:49:16;;;;;;;23.75;16.67;;;14.80;99.90;;;;;;5112638;27;20071;-39
2023/07/22 05:51:41;;;;;;;30.00;16.92;;;14.90;99.90;;;;;;5094136;27;20082;-39
2023/07/22 05:54:07;;;;;;;25.45;16.48;;;15.00;99.90;;;;;;5094985;27;20632;-39
2023/07/22 05:56:33;;;;;;;22.23;16.40;;;15.20;99.90;;;;;;5113752;27;20039;-39
2023/07/22 05:58:58;;;;;;;23.92;15.57;;;15.70;99.90;;;;;;5114248;27;20042;-39
2023/07/22 06:01:24;;;;;;;22.95;16.02;;;15.90;99.90;;;;;;5115204;27;20153;-39
2023/07/22 06:03:50;;;;;;;25.38;16.10;;;16.00;99.90;;;;;;5114805;27;20082;-39
2023/07/22 06:06:16;;;;;;;23.52;16.98;;;16.10;99.90;;;;;;5093874;27;20667;-39
2023/07/22 06:08:42;;;;;;;24.50;17.17;;;16.30;99.90;;;;;;5111283;27;21115;-39
2023/07/22 06:11:07;;;;;;;25.08;17.63;;;16.80;99.90;;;;;;5111907;27;20775;-39
2023/07/22 06:13:33;;;;;;;19.88;16.35;;;17.50;99.90;;;;;;5113163;27;20423;-39
2023/07/22 06:15:59;;;;;;;19.80;16.27;;;18.40;99.90;;;;;;5093587;28;20051;-39
2023/07/22 06:18:24;;;;;;;17.13;14.57;;;18.80;99.90;;;;;;5113876;27;20671;-39
2023/07/22 06:20:50;;;;;;;18.95;15.38;;;18.70;99.90;;;;;;5111448;27;20043;-40
2023/07/22 06:23:16;;;;;;;20.73;14.80;;;18.30;99.90;;;;;;5111701;27;20789;-39
2023/07/22 06:25:42;;;;;;;19.65;14.75;;;17.70;99.90;;;;;;5111382;27;20088;-39
2023/07/22 06:28:08;;;;;;;19.50;15.68;;;17.20;99.90;;;;;;5112328;27;20089;-42
2023/07/22 06:30:34;;;;;;;19.35;15.02;;;16.80;99.90;;;;;;5113102;27;20532;-39
2023/07/22 06:32:59;;;;;;;21.52;15.35;;;16.60;99.90;;;;;;5112165;27;20120;-39
2023/07/22 06:35:25;;;;;;;19.85;15.80;;;16.50;99.90;;;;;;5113932;27;20031;-39
2023/07/22 06:37:51;;;;;;;20.48;17.08;;;16.30;99.90;;;;;;5113098;27;20146;-39
2023/07/22 06:40:17;;;;;;;20.70;15.88;;;16.30;99.90;;;;;;5113100;27;20031;-39
2023/07/22 06:42:43;;;;;;;19.73;15.68;;;16.30;99.90;;;;;;5113586;27;20089;-39
2023/07/22 06:45:08;;;;;;;20.77;15.82;;;16.20;99.90;;;;;;5111936;27;20039;-39
2023/07/22 06:47:36;;;;;;;21.00;16.48;;;16.20;99.90;;;;;;5115767;27;20039;-39
2023/07/22 06:50:05;;;;;;;17.35;14.80;;;16.30;99.90;;;;;;5116579;27;20099;-39
2023/07/22 06:52:32;;;;;;;18.65;15.23;;;16.30;99.90;;;;;;5117363;27;20047;-39
2023/07/22 06:54:57;;;;;;;17.45;14.73;;;16.40;99.90;;;;;;5110818;27;20071;-39
2023/07/22 06:57:25;;;;;;;19.65;14.65;;;16.60;99.90;;;;;;5114393;27;20150;-39
2023/07/22 06:59:53;;;;;;;16.17;13.95;;;16.60;99.90;;;;;;5104370;27;20430;-39
2023/07/22 07:02:19;;;;;;;16.70;13.88;;;16.70;99.90;;;;;;5108172;27;20046;-39
2023/07/22 07:04:45;;;;;;;16.95;12.90;;;16.60;99.90;;;;;;5106121;27;20043;-39
2023/07/22 07:07:12;;;;;;;16.67;13.68;;;16.60;99.90;;;;;;5109891;27;20050;-39
2023/07/22 07:09:38;;;;;;;17.33;14.18;;;16.70;99.90;;;;;;5111978;27;20598;-39
2023/07/22 07:12:04;;;;;;;14.55;12.73;;;16.90;99.90;;;;;;5102368;27;20043;-39
2023/07/22 07:14:30;;;;;;;16.48;13.32;;;17.20;99.90;;;;;;5091171;27;20053;-39
2023/07/22 07:16:56;;;;;;;17.60;12.68;;;17.30;99.90;;;;;;5107344;27;20043;-39
2023/07/22 07:19:21;;;;;;;16.90;13.95;;;17.30;99.90;;;;;;5088678;27;20146;-39
2023/07/22 07:21:47;;;;;;;16.63;12.85;;;17.40;99.90;;;;;;5115214;27;20096;-39
2023/07/22 07:24:13;;;;;;;17.08;15.07;;;17.50;99.90;;;;;;5113187;27;20444;-39
2023/07/22 07:26:38;;;;;;;22.75;18.98;;;17.40;99.90;;;;;;5115955;27;20031;-39
2023/07/22 07:29:04;;;;;;;40.33;32.00;;;17.50;99.90;;;;;;5113480;27;20533;-39
2023/07/22 07:31:30;;;;;;;50.03;41.63;;;17.50;99.90;;;;;;5115529;27;20041;-39
2023/07/22 07:33:56;;;;;;;65.75;51.90;;;17.40;99.90;;;;;;5116769;27;20050;-39
2023/07/22 07:36:21;;;;;;;61.78;50.75;;;17.40;99.90;;;;;;5115466;27;20653;-39
2023/07/22 07:38:48;;;;;;;56.25;40.95;;;17.40;99.90;;;;;;5091914;27;20055;-40
2023/07/22 07:41:14;;;;;;;43.70;35.10;;;17.50;99.90;;;;;;5114530;27;20578;-39
2023/07/22 07:43:43;;;;;;;41.67;32.25;;;17.50;99.90;;;;;;5114949;27;20441;-39
2023/07/22 07:46:28;;;;;;;36.97;29.02;;;17.50;99.90;;;;;;5094442;27;20047;-39
2023/07/22 07:49:01;;;;;;;31.23;26.02;;;17.60;99.90;;;;;;5113526;27;20695;-39
2023/07/22 07:51:29;;;;;;;26.98;21.75;;;17.60;99.90;;;;;;5113277;27;20436;-39
2023/07/22 07:53:56;;;;;;;29.30;22.10;;;17.70;99.90;;;;;;5111267;27;20182;-39
2023/07/22 07:56:22;;;;;;;28.55;21.92;;;17.90;99.90;;;;;;5107074;27;20035;-39
2023/07/22 07:58:50;;;;;;;25.92;20.27;;;18.00;99.90;;;;;;5112551;27;20049;-39
2023/07/22 08:01:16;;;;;;;24.50;20.52;;;18.10;99.90;;;;;;5114462;27;20216;-39
2023/07/22 08:03:43;;;;;;;23.98;19.65;;;18.10;99.90;;;;;;5114158;27;20035;-39
2023/07/22 08:06:09;;;;;;;26.65;21.20;;;18.10;99.90;;;;;;5113814;27;20544;-39
2023/07/22 08:08:36;;;;;;;25.55;21.52;;;18.00;99.90;;;;;;5113835;27;20476;-39
2023/07/22 08:11:04;;;;;;;26.15;21.25;;;18.00;99.90;;;;;;5093922;27;20470;-39
2023/07/22 08:13:31;;;;;;;27.58;20.23;;;17.90;99.90;;;;;;5114189;27;20043;-39
2023/07/22 08:16:03;;;;;;;28.67;22.73;;;17.90;99.90;;;;;;5113445;27;20157;-40
2023/07/22 08:18:29;;;;;;;27.98;22.40;;;17.70;99.90;;;;;;5113747;27;20062;-39
2023/07/22 08:20:55;;;;;;;29.65;22.77;;;17.50;99.90;;;;;;5114170;27;20165;-39
2023/07/22 08:23:21;;;;;;;27.83;21.90;;;17.40;99.90;;;;;;5091194;27;20571;-39
2023/07/22 08:25:49;;;;;;;29.35;23.45;;;17.20;99.90;;;;;;5111440;27;20043;-40
2023/07/22 08:28:15;;;;;;;41.45;26.60;;;16.90;99.90;;;;;;5108698;27;20478;-39
2023/07/22 08:30:42;;;;;;;39.22;24.23;;;16.60;99.90;;;;;;5102519;27;20038;-39
2023/07/22 08:33:13;;;;;;;27.00;19.10;;;16.40;99.90;;;;;;5114703;27;20543;-39
2023/07/22 08:35:40;;;;;;;28.30;19.63;;;16.10;99.90;;;;;;5111155;27;20069;-39
2023/07/22 08:38:08;;;;;;;26.85;19.08;;;16.00;99.90;;;;;;5113712;27;20043;-39
2023/07/22 08:40:35;;;;;;;26.00;18.73;;;16.00;99.90;;;;;;5092405;27;20492;-39
2023/07/22 08:43:03;;;;;;;25.48;19.25;;;16.00;99.90;;;;;;5113289;27;20072;-39
2023/07/22 08:45:34;;;;;;;29.70;21.20;;;16.00;99.90;;;;;;5113934;27;20093;-39
2023/07/22 08:48:03;;;;;;;32.20;22.70;;;16.00;99.90;;;;;;5113730;27;20039;-39
2023/07/22 08:50:30;;;;;;;31.80;22.63;;;16.10;99.90;;;;;;5113180;27;20063;-39
2023/07/22 08:52:57;;;;;;;33.13;23.52;;;16.20;99.90;;;;;;5115516;27;20069;-39
2023/07/22 08:55:24;;;;;;;29.05;22.50;;;16.30;99.90;;;;;;5113675;27;20146;-39
2023/07/22 08:57:50;;;;;;;33.17;23.83;;;16.30;99.90;;;;;;5094718;27;20432;-39
2023/07/22 09:00:16;;;;;;;29.45;21.48;;;16.30;99.90;;;;;;5113906;27;20327;-39
2023/07/22 09:02:42;;;;;;;32.13;22.55;;;16.30;99.90;;;;;;5110985;27;20030;-39
2023/07/22 09:05:09;;;;;;;33.22;23.23;;;16.30;99.90;;;;;;5107069;27;20053;-39
2023/07/22 09:07:35;;;;;;;27.55;19.63;;;16.30;99.90;;;;;;5101013;27;20077;-39
2023/07/22 09:10:02;;;;;;;23.15;17.50;;;16.40;99.90;;;;;;5102666;27;20359;-39
2023/07/22 09:12:28;;;;;;;17.75;15.00;;;16.40;99.90;;;;;;5107230;27;20354;-39
2023/07/22 09:14:55;;;;;;;16.60;12.95;;;16.40;99.90;;;;;;5106400;27;20527;-39
2023/07/22 09:17:21;;;;;;;13.32;11.88;;;16.40;99.90;;;;;;5111982;27;20468;-39
2023/07/22 09:19:52;;;;;;;12.20;10.70;;;16.40;99.90;;;;;;5111501;27;20054;-39
2023/07/22 09:22:18;;;;;;;10.32;9.23;;;16.40;99.90;;;;;;5111732;27;20141;-39
2023/07/22 09:24:43;;;;;;;12.02;9.77;;;16.40;99.90;;;;;;5112036;27;20068;-39
2023/07/22 09:27:09;;;;;;;10.82;8.35;;;16.50;99.90;;;;;;5109507;27;20469;-39
2023/07/22 09:29:36;;;;;;;9.13;7.18;;;16.60;99.90;;;;;;5111396;27;20035;-39
2023/07/22 09:32:03;;;;;;;7.68;6.45;;;16.60;99.90;;;;;;5112964;27;20091;-39
2023/07/22 09:34:29;;;;;;;7.57;6.85;;;16.60;99.90;;;;;;5112972;27;20107;-39
2023/07/22 09:36:57;;;;;;;5.30;4.80;;;16.60;99.90;;;;;;5093741;27;20183;-39
2023/07/22 09:39:23;;;;;;;4.93;4.43;;;16.60;99.90;;;;;;5111806;27;20043;-39
2023/07/22 09:41:50;;;;;;;4.68;4.00;;;16.60;99.90;;;;;;5111306;27;20411;-39
2023/07/22 09:44:15;;;;;;;5.20;4.70;;;16.60;99.90;;;;;;5110557;27;20361;-39
2023/07/22 09:46:41;;;;;;;5.80;5.13;;;16.70;99.90;;;;;;5092670;27;20516;-39
2023/07/22 09:49:12;;;;;;;6.90;5.78;;;16.80;99.90;;;;;;5110409;27;20043;-39
2023/07/22 09:51:39;;;;;;;6.47;5.78;;;16.70;99.90;;;;;;5112398;27;20102;-39
2023/07/22 09:54:06;;;;;;;7.30;6.40;;;16.80;99.90;;;;;;5112411;27;20047;-39
2023/07/22 09:56:32;;;;;;;6.90;6.20;;;16.80;99.90;;;;;;5110047;27;20051;-39
2023/07/22 09:59:05;;;;;;;8.82;6.93;;;16.70;99.90;;;;;;5107545;27;20466;-39
2023/07/22 10:01:31;;;;;;;7.70;7.00;;;16.70;99.90;;;;;;5110893;27;20390;-39
2023/07/22 10:03:58;;;;;;;9.20;7.07;;;16.70;99.90;;;;;;5091878;27;20047;-39
2023/07/22 10:06:27;;;;;;;7.30;6.63;;;16.70;99.90;;;;;;5111587;27;20035;-39
2023/07/22 10:08:55;;;;;;;8.35;7.18;;;16.60;99.90;;;;;;5116818;27;20054;-39
2023/07/22 10:11:24;;;;;;;8.25;7.45;;;16.50;99.90;;;;;;5118378;27;20775;-39
2023/07/22 10:13:53;;;;;;;9.20;8.10;;;16.50;99.90;;;;;;5096821;27;20062;-39
2023/07/22 10:16:18;;;;;;;7.82;7.10;;;16.50;99.90;;;;;;5113481;27;20504;-40
2023/07/22 10:18:46;;;;;;;9.35;7.88;;;16.40;99.90;;;;;;5109336;27;20051;-39
2023/07/22 10:21:12;;;;;;;9.38;8.48;;;16.40;99.90;;;;;;5095743;27;20044;-39
2023/07/22 10:23:39;;;;;;;10.70;9.68;;;16.50;99.90;;;;;;5102447;27;20537;-39
2023/07/22 10:26:05;;;;;;;10.25;7.88;;;16.50;99.90;;;;;;5099237;27;20089;-39
2023/07/22 10:28:32;;;;;;;10.90;8.85;;;16.40;99.90;;;;;;5093740;27;20079;-39
2023/07/22 10:30:58;;;;;;;8.77;7.65;;;16.40;99.90;;;;;;5095129;27;20054;-39
2023/07/22 10:33:25;;;;;;;8.95;7.72;;;16.50;99.90;;;;;;5096912;27;20048;-39
2023/07/22 10:36:17;;;;;;;9.00;8.10;;;16.50;99.90;;;;;;5096474;28;20289;-39
2023/07/22 10:38:42;;;;;;;10.68;9.68;;;16.40;99.90;;;;;;5114488;27;20086;-39
2023/07/22 10:41:13;;;;;;;13.02;11.73;;;16.40;99.90;;;;;;5115950;27;20166;-39
2023/07/22 10:43:39;;;;;;;13.20;11.10;;;16.40;99.90;;;;;;5113582;27;20564;-39
2023/07/22 10:46:12;;;;;;;14.48;12.65;;;16.30;99.90;;;;;;5108567;27;20963;-39
2023/07/22 10:48:41;;;;;;;14.35;12.95;;;16.30;99.90;;;;;;5115420;27;20074;-39
2023/07/22 10:51:11;;;;;;;15.15;13.55;;;16.20;99.90;;;;;;5116370;27;20051;-39
2023/07/22 10:53:45;;;;;;;15.15;13.25;;;16.20;99.90;;;;;;5116580;27;20059;-39
2023/07/22 10:56:18;;;;;;;18.13;16.13;;;16.20;99.90;;;;;;5115897;27;20051;-39
2023/07/22 10:58:44;;;;;;;15.68;14.13;;;16.20;99.90;;;;;;5113606;27;20399;-39
2023/07/22 11:01:28;;;;;;;15.55;14.05;;;16.20;99.90;;;;;;5100362;27;20040;-39
2023/07/22 11:04:17;;;;;;;15.90;14.35;;;16.40;99.90;;;;;;5099858;27;20967;-39
2023/07/22 11:06:50;;;;;;;16.88;14.68;;;16.40;99.90;;;;;;5105594;27;20062;-39
2023/07/22 11:09:30;;;;;;;15.63;13.60;;;16.40;99.90;;;;;;5095469;27;20325;-39
2023/07/22 11:11:56;;;;;;;14.38;13.07;;;16.50;99.90;;;;;;5089529;28;20382;-39
2023/07/22 11:14:24;;;;;;;15.63;14.13;;;16.50;99.90;;;;;;5109966;27;20062;-39
2023/07/22 11:16:50;;;;;;;15.80;13.77;;;16.60;99.90;;;;;;5112013;27;20051;-39
2023/07/22 11:19:18;;;;;;;15.23;13.65;;;16.50;99.90;;;;;;5113355;27;20697;-39
2023/07/22 11:21:45;;;;;;;14.18;12.98;;;16.60;99.90;;;;;;5114328;27;20078;-39
2023/07/22 11:24:11;;;;;;;15.30;13.90;;;16.60;99.90;;;;;;5107127;27;20047;-39
2023/07/22 11:26:38;;;;;;;14.65;13.25;;;16.60;99.90;;;;;;5113986;27;20075;-39
2023/07/22 11:29:07;;;;;;;15.05;13.48;;;16.60;99.90;;;;;;5112165;27;20047;-39
2023/07/22 11:31:33;;;;;;;14.70;13.23;;;16.60;99.90;;;;;;5098677;27;20107;-39
2023/07/22 11:33:59;;;;;;;14.68;13.02;;;16.50;99.90;;;;;;5118435;27;20562;-39
2023/07/22 11:36:28;;;;;;;13.95;12.65;;;16.40;99.90;;;;;;5119028;27;20142;-39
2023/07/22 11:39:00;;;;;;;14.27;12.57;;;16.40;99.90;;;;;;5116799;27;20051;-39
2023/07/22 11:41:26;;;;;;;15.73;14.30;;;16.40;99.90;;;;;;5118893;27;20139;-39
2023/07/22 11:43:52;;;;;;;15.98;14.38;;;16.30;99.90;;;;;;5116366;27;20502;-39
2023/07/22 11:46:17;;;;;;;15.00;13.48;;;16.30;99.90;;;;;;5100066;27;20043;-39
2023/07/22 11:48:51;;;;;;;23.48;15.60;;;16.20;99.90;;;;;;5117738;27;20050;-39
2023/07/22 11:51:19;;;;;;;17.23;15.55;;;16.10;99.90;;;;;;5099734;27;20561;-39
2023/07/22 11:53:49;;;;;;;17.55;15.65;;;16.00;99.90;;;;;;5118733;27;20168;-40
2023/07/22 11:56:23;;;;;;;17.08;14.98;;;15.90;99.90;;;;;;5117858;27;20054;-39
2023/07/22 11:58:52;;;;;;;18.40;16.52;;;15.90;99.90;;;;;;5098298;27;20061;-39
2023/07/22 12:01:18;;;;;;;20.85;16.52;;;16.00;99.90;;;;;;5117375;27;20421;-39
2023/07/22 12:03:44;;;;;;;17.23;15.50;;;16.00;99.90;;;;;;5118107;27;20047;-39
2023/07/22 12:06:10;;;;;;;20.02;17.92;;;16.00;99.90;;;;;;5117857;27;20046;-39
2023/07/22 12:08:42;;;;;;;18.88;17.08;;;16.00;99.90;;;;;;5116974;27;20058;-39
2023/07/22 12:11:08;;;;;;;19.25;17.17;;;16.10;99.90;;;;;;5117634;27;20489;-39
2023/07/22 12:13:37;;;;;;;20.95;18.75;;;16.20;99.90;;;;;;5099535;27;20043;-39
2023/07/22 12:16:05;;;;;;;21.42;17.73;;;16.30;99.90;;;;;;5094882;27;20390;-39
2023/07/22 12:18:46;;;;;;;19.27;17.27;;;16.40;99.90;;;;;;5117131;27;20047;-39
2023/07/22 12:21:12;;;;;;;18.10;16.20;;;16.50;99.90;;;;;;5117717;27;20047;-39
2023/07/22 12:23:38;;;;;;;17.73;15.90;;;16.60;99.90;;;;;;5112094;27;20609;-39
2023/07/22 12:26:05;;;;;;;18.25;16.25;;;16.70;99.90;;;;;;5138829;27;20129;-39
2023/07/22 12:28:31;;;;;;;18.00;14.77;;;16.80;99.90;;;;;;5137507;27;20108;-39
2023/07/22 12:30:57;;;;;;;17.98;14.98;;;17.00;99.90;;;;;;5120359;27;20043;-39
2023/07/22 12:33:27;;;;;;;16.70;15.05;;;17.00;99.90;;;;;;5139694;27;20675;-39